createdAt,value
2023-03-27T00:02:31.384Z,93632.00
2023-03-27T00:06:31.510Z,93636.00
2023-03-27T00:10:31.681Z,93640.00
2023-03-27T00:14:31.800Z,93642.00
2023-03-27T00:18:31.989Z,93648.00
2023-03-27T00:22:32.228Z,93644.00
2023-03-27T00:26:32.412Z,93650.00
2023-03-27T00:30:32.642Z,93644.00
2023-03-27T00:34:32.607Z,93642.00
2023-03-27T00:38:32.566Z,93646.00
2023-03-27T00:42:32.544Z,93650.00
2023-03-27T00:46:32.554Z,93654.00
2023-03-27T00:50:32.441Z,93652.00
2023-03-27T00:54:32.658Z,93654.00
2023-03-27T00:58:32.357Z,93656.00
2023-03-27T01:02:32.428Z,93656.00
2023-03-27T01:06:32.289Z,93654.00
2023-03-27T01:10:32.232Z,93650.00
2023-03-27T01:14:32.238Z,93662.00
2023-03-27T01:18:32.394Z,93664.00
2023-03-27T01:22:32.370Z,93668.00
2023-03-27T01:26:36.324Z,93656.00
2023-03-27T01:30:32.326Z,93656.00
2023-03-27T01:34:32.261Z,93660.00
2023-03-27T01:38:32.399Z,93668.00
2023-03-27T01:42:32.336Z,93670.00
2023-03-27T01:46:32.321Z,93666.00
2023-03-27T01:50:32.248Z,93674.00
2023-03-27T01:54:32.217Z,93672.00
2023-03-27T01:58:32.198Z,93668.00
2023-03-27T02:02:32.233Z,93672.00
2023-03-27T02:06:32.175Z,93674.00
2023-03-27T02:10:32.091Z,93674.00
2023-03-27T02:14:32.075Z,93672.00
2023-03-27T02:18:32.072Z,93675.00
2023-03-27T02:22:38.304Z,93677.00
2023-03-27T02:26:32.972Z,93664.00
2023-03-27T02:30:31.926Z,93658.00
2023-03-27T02:34:31.930Z,93664.00
2023-03-27T02:38:31.841Z,93664.00
2023-03-27T02:42:31.836Z,93660.00
2023-03-27T02:46:31.779Z,93662.00
2023-03-27T02:50:31.764Z,93664.00
2023-03-27T02:54:31.704Z,93672.00
2023-03-27T02:58:31.672Z,93668.00
2023-03-27T03:02:31.729Z,93670.00
2023-03-27T03:06:31.628Z,93675.00
2023-03-27T03:10:31.563Z,93675.00
2023-03-27T03:14:31.557Z,93675.00
2023-03-27T03:18:31.522Z,93680.00
2023-03-27T03:22:31.473Z,93672.00
2023-03-27T03:26:31.420Z,93670.00
2023-03-27T03:30:31.488Z,93674.00
2023-03-27T03:34:31.344Z,93674.00
2023-03-27T03:38:37.647Z,93685.00
2023-03-27T03:42:32.281Z,93689.00
2023-03-27T03:46:31.260Z,93701.00
2023-03-27T03:50:31.404Z,93705.00
2023-03-27T03:54:31.617Z,93715.00
2023-03-27T03:58:34.924Z,93715.00
2023-03-27T04:02:31.592Z,93736.00
2023-03-27T04:06:31.555Z,93740.00
2023-03-27T04:10:31.521Z,93750.00
2023-03-27T04:14:31.426Z,93750.00
2023-03-27T04:18:31.478Z,93748.00
2023-03-27T04:22:31.347Z,93750.00
2023-03-27T04:26:31.353Z,93752.00
2023-03-27T04:30:31.303Z,93727.00
2023-03-27T04:34:31.304Z,93725.00
2023-03-27T04:38:31.222Z,93750.00
2023-03-27T04:42:31.206Z,93758.00
2023-03-27T04:46:31.225Z,93768.00
2023-03-27T04:50:31.273Z,93725.00
2023-03-27T04:54:31.508Z,93738.00
2023-03-27T04:58:31.756Z,93744.00
2023-03-27T05:02:31.868Z,93754.00
2023-03-27T05:06:31.785Z,93760.00
2023-03-27T05:10:31.740Z,93777.00
2023-03-27T05:14:31.724Z,93777.00
2023-03-27T05:18:31.651Z,93787.00
2023-03-27T05:22:31.614Z,93776.00
2023-03-27T05:26:31.588Z,93783.00
2023-03-27T05:30:31.592Z,93789.00
2023-03-27T05:34:31.509Z,93826.00
2023-03-27T05:38:31.469Z,93850.00
2023-03-27T05:42:31.451Z,93864.00
2023-03-27T05:46:31.467Z,93889.00
2023-03-27T05:50:31.411Z,93895.00
2023-03-27T05:54:31.436Z,93895.00
2023-03-27T05:58:31.730Z,93909.00
2023-03-27T06:02:31.700Z,93909.00
2023-03-27T06:06:31.571Z,93922.00
2023-03-27T06:10:31.539Z,93928.00
2023-03-27T06:14:31.503Z,93950.00
2023-03-27T06:18:31.487Z,93963.00
2023-03-27T06:22:31.428Z,93967.00
2023-03-27T06:26:31.398Z,93987.00
2023-03-27T06:30:31.514Z,94009.00
2023-03-27T06:34:31.845Z,94009.00
2023-03-27T06:38:31.268Z,94016.00
2023-03-27T06:42:31.306Z,94026.00
2023-03-27T06:46:42.810Z,94052.00
2023-03-27T06:50:32.180Z,94077.00
2023-03-27T06:54:31.116Z,94089.00
2023-03-27T06:58:31.113Z,94101.00
2023-03-27T07:02:31.099Z,94126.00
2023-03-27T07:06:31.114Z,94110.00
2023-03-27T07:10:31.277Z,94148.00
2023-03-27T07:14:31.257Z,94157.00
2023-03-27T07:18:31.452Z,94163.00
2023-03-27T07:22:31.579Z,94149.00
2023-03-27T07:26:31.688Z,94208.00
2023-03-27T07:30:31.924Z,94169.00
2023-03-27T07:34:32.261Z,94198.00
2023-03-27T10:14:33.908Z,94488.00
2023-03-27T10:46:33.349Z,94522.00
2023-03-27T10:50:33.267Z,94531.00
2023-03-27T10:54:33.333Z,94527.00
2023-03-27T10:58:33.156Z,94531.00
2023-03-27T11:02:33.273Z,94535.00
2023-03-27T11:06:33.093Z,94545.00
2023-03-27T11:10:33.067Z,94553.00
2023-03-27T11:14:33.189Z,94555.00
2023-03-27T11:18:33.280Z,94569.00
2023-03-27T11:22:33.402Z,94559.00
2023-03-27T11:26:33.303Z,94578.00
2023-03-27T11:30:33.430Z,94582.00
2023-03-27T11:34:33.475Z,94588.00
2023-03-27T11:38:33.563Z,94598.00
2023-03-27T11:42:33.616Z,94596.00
2023-03-27T11:46:33.707Z,94600.00
2023-03-27T11:50:33.532Z,94600.00
2023-03-27T11:54:33.527Z,94598.00
2023-03-27T11:58:33.555Z,94608.00
2023-03-27T12:02:33.613Z,94565.00
2023-03-27T12:06:33.534Z,94592.00
2023-03-27T12:10:33.687Z,94594.00
2023-03-27T12:14:40.829Z,94637.00
2023-03-27T12:18:36.392Z,94645.00
2023-03-27T12:22:33.744Z,94645.00
2023-03-27T12:26:33.787Z,94655.00
2023-03-27T12:30:33.887Z,94655.00
2023-03-27T12:34:33.632Z,94668.00
2023-03-27T12:38:33.550Z,94668.00
2023-03-27T12:42:33.512Z,94670.00
2023-03-27T12:46:34.575Z,94682.00
2023-03-27T12:50:33.452Z,94666.00
2023-03-27T12:54:33.476Z,94672.00
2023-03-27T12:58:33.735Z,94668.00
2023-03-27T13:02:33.854Z,94670.00
2023-03-27T13:06:33.880Z,94670.00
2023-03-27T13:10:33.984Z,94684.00
2023-03-27T13:14:34.193Z,94674.00
2023-03-27T13:18:34.141Z,94676.00
2023-03-27T13:22:37.134Z,94684.00
2023-03-27T13:26:34.119Z,94700.00
2023-03-27T13:30:34.136Z,94714.00
2023-03-27T13:34:34.107Z,94698.00
2023-03-27T13:38:33.989Z,94716.00
2023-03-27T13:42:34.399Z,94745.00
2023-03-27T13:46:33.996Z,94751.00
2023-03-27T13:50:33.940Z,94751.00
2023-03-27T13:54:33.910Z,94747.00
2023-03-27T13:58:33.862Z,94755.00
2023-03-27T14:02:33.901Z,94770.00
2023-03-27T14:06:33.790Z,94772.00
2023-03-27T14:10:34.379Z,94778.00
2023-03-27T14:14:33.690Z,94790.00
2023-03-27T14:18:33.650Z,94749.00
2023-03-27T14:22:33.646Z,94758.00
2023-03-27T14:26:33.579Z,94776.00
2023-03-27T14:30:33.585Z,94784.00
2023-03-27T14:34:47.389Z,94780.00
2023-03-27T14:38:34.467Z,94780.00
2023-03-27T14:42:33.568Z,94780.00
2023-03-27T14:46:33.603Z,94796.00
2023-03-27T14:50:33.359Z,94802.00
2023-03-27T14:54:41.695Z,94804.00
2023-03-27T14:58:34.317Z,94808.00
2023-03-27T15:02:33.318Z,94815.00
2023-03-27T15:06:33.228Z,94825.00
2023-03-27T15:10:33.207Z,94829.00
2023-03-27T15:14:33.173Z,94845.00
2023-03-27T15:18:33.206Z,94858.00
2023-03-27T15:22:33.237Z,94864.00
2023-03-27T15:26:33.258Z,94878.00
2023-03-27T15:30:33.411Z,94892.00
2023-03-27T15:34:33.487Z,94888.00
2023-03-27T15:38:33.478Z,94890.00
2023-03-27T15:42:33.657Z,94890.00
2023-03-27T15:46:33.898Z,94898.00
2023-03-27T15:50:33.928Z,94900.00
2023-03-27T15:54:33.963Z,94904.00
2023-03-27T15:58:34.062Z,94913.00
2023-03-27T16:02:34.198Z,94923.00
2023-03-27T16:06:34.251Z,94923.00
2023-03-27T16:10:34.265Z,94935.00
2023-03-27T16:14:34.321Z,94941.00
2023-03-27T16:18:34.449Z,94943.00
2023-03-27T16:22:34.549Z,94945.00
2023-03-27T16:26:34.641Z,94970.00
2023-03-27T16:30:34.870Z,94968.00
2023-03-27T16:34:34.960Z,94980.00
2023-03-27T16:38:35.090Z,94984.00
2023-03-27T16:42:35.200Z,94992.00
2023-03-27T16:46:35.334Z,95005.00
2023-03-27T16:50:35.468Z,95021.00
2023-03-27T16:54:35.592Z,95015.00
2023-03-27T16:58:35.673Z,95023.00
2023-03-27T17:02:36.006Z,95027.00
